createdAt,value
2022-08-28T00:01:24.622Z,36.45
2022-08-28T00:03:51.124Z,38.92
2022-08-28T00:06:17.751Z,40.15
2022-08-28T00:08:44.504Z,39.35
2022-08-28T00:11:11.045Z,38.13
2022-08-28T00:13:43.957Z,40.85
2022-08-28T00:16:11.721Z,36.75
2022-08-28T00:18:40.197Z,37.47
2022-08-28T00:21:08.068Z,33.17
2022-08-28T00:23:42.502Z,31.63
2022-08-28T00:26:09.863Z,35.13
2022-08-28T00:28:38.058Z,30.23
2022-08-28T00:31:04.750Z,28.67
2022-08-28T00:33:33.766Z,29.08
2022-08-28T00:36:01.819Z,30.40
2022-08-28T00:38:30.774Z,27.40
2022-08-28T00:41:01.751Z,30.60
2022-08-28T00:43:37.862Z,30.98
2022-08-28T00:46:11.990Z,31.67
2022-08-28T00:48:39.515Z,30.73
2022-08-28T00:51:07.186Z,26.63
2022-08-28T00:53:33.819Z,25.40
2022-08-28T00:56:09.466Z,24.45
2022-08-28T00:58:42.325Z,25.73
2022-08-28T01:01:09.351Z,22.92
2022-08-28T01:03:36.561Z,27.85
2022-08-28T01:06:03.766Z,29.77
2022-08-28T01:08:30.812Z,30.05
2022-08-28T01:11:01.051Z,35.17
2022-08-28T01:15:56.040Z,36.90
2022-08-28T01:18:23.396Z,34.40
2022-08-28T01:21:27.563Z,34.05
2022-08-28T01:24:04.858Z,27.20
2022-08-28T01:26:31.682Z,36.42
2022-08-28T01:28:59.446Z,36.03
2022-08-28T01:31:27.990Z,36.13
2022-08-28T01:33:56.115Z,40.97
2022-08-28T01:36:22.569Z,38.88
2022-08-28T01:38:56.136Z,33.17
2022-08-28T01:41:22.730Z,29.27
2022-08-28T01:43:49.245Z,35.58
2022-08-28T01:46:15.668Z,49.58
2022-08-28T01:48:44.476Z,37.20
2022-08-28T01:51:12.345Z,45.47
2022-08-28T01:53:39.877Z,39.38
2022-08-28T01:56:11.282Z,49.22
2022-08-28T01:58:38.623Z,43.95
2022-08-28T02:01:13.499Z,44.67
2022-08-28T02:03:42.970Z,35.83
2022-08-28T02:06:10.291Z,38.08
2022-08-28T02:08:37.152Z,37.55
2022-08-28T02:11:07.619Z,35.25
2022-08-28T02:13:36.536Z,38.08
2022-08-28T02:16:07.052Z,39.88
2022-08-28T02:18:33.574Z,40.97
2022-08-28T02:21:00.180Z,34.88
2022-08-28T02:23:27.216Z,41.20
2022-08-28T02:25:53.923Z,38.88
2022-08-28T02:28:20.391Z,36.65
2022-08-28T02:30:46.930Z,42.70
2022-08-28T02:33:13.331Z,36.15
2022-08-28T02:35:39.968Z,40.50
2022-08-28T02:38:06.472Z,43.85
2022-08-28T02:40:32.919Z,34.13
2022-08-28T02:42:59.735Z,43.08
2022-08-28T02:45:31.365Z,42.33
2022-08-28T02:47:57.851Z,39.75
2022-08-28T02:50:24.538Z,36.85
2022-08-28T02:52:51.935Z,40.50
2022-08-28T02:55:19.605Z,37.95
2022-08-28T02:57:48.734Z,39.30
2022-08-28T03:00:21.094Z,37.15
2022-08-28T03:02:48.750Z,34.55
2022-08-28T03:05:17.676Z,35.45
2022-08-28T03:07:45.080Z,36.30
2022-08-28T03:10:11.778Z,41.13
2022-08-28T03:12:38.837Z,34.35
2022-08-28T03:15:06.455Z,34.40
2022-08-28T03:17:33.206Z,37.53
2022-08-28T03:19:59.635Z,29.73
2022-08-28T03:22:26.272Z,34.50
2022-08-28T03:24:52.762Z,35.75
2022-08-28T03:27:19.270Z,38.67
2022-08-28T03:29:45.609Z,37.25
2022-08-28T03:32:12.131Z,34.95
2022-08-28T03:34:38.598Z,36.05
2022-08-28T03:37:04.965Z,36.65
2022-08-28T03:39:31.674Z,39.20
2022-08-28T03:41:58.354Z,41.58
2022-08-28T03:44:24.831Z,44.67
2022-08-28T03:46:51.346Z,43.60
2022-08-28T03:49:18.126Z,49.88
2022-08-28T03:51:46.094Z,48.45
2022-08-28T03:54:13.032Z,43.65
2022-08-28T03:56:43.369Z,44.33
2022-08-28T03:59:10.465Z,52.50
2022-08-28T04:01:36.964Z,50.40
2022-08-28T04:04:04.002Z,47.92
2022-08-28T04:06:30.697Z,40.97
2022-08-28T04:09:00.092Z,47.00
2022-08-28T04:11:27.334Z,49.27
2022-08-28T04:13:53.801Z,47.05
2022-08-28T04:16:21.690Z,46.63
2022-08-28T04:18:49.542Z,38.17
2022-08-28T04:21:19.432Z,41.08
2022-08-28T04:23:47.370Z,38.65
2022-08-28T04:26:17.121Z,35.05
2022-08-28T04:28:43.688Z,42.33
2022-08-28T04:31:10.590Z,31.27
2022-08-28T04:33:38.158Z,35.45
2022-08-28T04:36:10.387Z,36.00
2022-08-28T04:38:43.548Z,37.00
2022-08-28T04:41:13.497Z,33.05
2022-08-28T04:43:40.311Z,31.90
2022-08-28T04:46:10.973Z,30.38
2022-08-28T04:48:39.912Z,33.47
2022-08-28T04:51:09.200Z,34.50
2022-08-28T04:53:38.057Z,34.78
2022-08-28T04:56:07.385Z,36.63
2022-08-28T04:58:34.260Z,30.63
2022-08-28T05:01:06.954Z,27.00
2022-08-28T05:03:33.617Z,28.65
2022-08-28T05:06:00.269Z,28.23
2022-08-28T05:08:26.824Z,26.15
2022-08-28T05:10:54.872Z,29.80
2022-08-28T05:13:22.309Z,23.38
2022-08-28T05:15:50.951Z,24.00
2022-08-28T05:18:19.752Z,24.67
2022-08-28T05:20:47.975Z,24.52
2022-08-28T05:23:16.733Z,33.20
2022-08-28T05:25:47.925Z,29.00
2022-08-28T05:28:16.460Z,26.27
2022-08-28T05:30:44.050Z,29.40
2022-08-28T05:33:13.489Z,21.95
2022-08-28T05:35:44.642Z,29.35
2022-08-28T05:38:13.377Z,30.23
2022-08-28T05:40:44.432Z,27.50
2022-08-28T05:43:12.667Z,26.73
2022-08-28T05:45:41.389Z,22.88
2022-08-28T05:48:11.449Z,27.55
2022-08-28T05:50:39.086Z,25.50
2022-08-28T05:53:09.451Z,29.08
2022-08-28T05:55:40.104Z,27.13
2022-08-28T05:58:06.640Z,28.50
2022-08-28T06:00:33.006Z,25.05
2022-08-28T06:02:59.508Z,24.75
2022-08-28T06:05:25.871Z,24.45
2022-08-28T06:07:54.679Z,22.52
2022-08-28T06:10:21.054Z,23.08
2022-08-28T06:12:47.701Z,28.25
2022-08-28T06:15:14.154Z,21.83
2022-08-28T06:17:40.947Z,25.83
2022-08-28T06:20:08.037Z,18.65
2022-08-28T06:22:34.542Z,20.75
2022-08-28T06:25:01.018Z,20.02
2022-08-28T06:27:30.413Z,21.83
2022-08-28T06:29:56.917Z,24.00
2022-08-28T06:32:23.379Z,20.83
2022-08-28T06:34:49.897Z,19.55
2022-08-28T06:37:16.824Z,15.85
2022-08-28T06:39:43.407Z,21.52
2022-08-28T06:42:09.784Z,21.50
2022-08-28T06:44:36.854Z,20.95
2022-08-28T06:47:03.435Z,21.52
2022-08-28T06:49:29.942Z,19.73
2022-08-28T06:51:56.536Z,21.20
2022-08-28T06:54:23.745Z,23.30
2022-08-28T06:56:51.264Z,20.77
2022-08-28T06:59:17.955Z,21.63
2022-08-28T07:01:44.427Z,22.35
2022-08-28T07:04:13.217Z,20.85
2022-08-28T07:06:42.129Z,20.38
2022-08-28T07:09:10.269Z,20.55
2022-08-28T07:11:37.296Z,19.05
2022-08-28T07:14:04.151Z,21.52
2022-08-28T07:16:39.021Z,18.92
2022-08-28T07:19:10.726Z,18.33
2022-08-28T07:21:39.859Z,20.13
2022-08-28T07:24:08.471Z,18.80
2022-08-28T07:26:35.851Z,18.00
2022-08-28T07:29:09.357Z,17.95
2022-08-28T07:31:36.515Z,16.67
2022-08-28T07:34:04.075Z,15.93
2022-08-28T07:36:30.518Z,17.40
2022-08-28T07:38:59.674Z,15.40
2022-08-28T07:41:28.719Z,19.08
2022-08-28T07:43:56.304Z,14.27
2022-08-28T07:46:22.757Z,16.55
2022-08-28T07:48:49.252Z,15.45
2022-08-28T07:51:15.879Z,14.05
2022-08-28T07:53:42.362Z,12.95
2022-08-28T07:56:09.438Z,13.95
2022-08-28T07:58:37.432Z,17.13
2022-08-28T08:01:04.116Z,13.57
2022-08-28T08:03:31.788Z,13.45
2022-08-28T08:06:04.072Z,14.10
2022-08-28T08:08:32.191Z,12.55
2022-08-28T08:11:01.702Z,12.57
2022-08-28T08:13:30.233Z,13.73
2022-08-28T08:16:28.260Z,14.45
2022-08-28T08:18:54.895Z,12.45
2022-08-28T08:21:21.891Z,17.77
2022-08-28T08:23:48.673Z,13.48
2022-08-28T08:26:25.891Z,15.68
2022-08-28T08:28:52.506Z,18.63
2022-08-28T08:31:25.115Z,14.90
2022-08-28T08:33:55.795Z,14.52
2022-08-28T08:36:24.163Z,15.77
2022-08-28T08:38:59.142Z,19.58
2022-08-28T08:41:34.766Z,16.42
2022-08-28T08:44:09.696Z,13.30
2022-08-28T08:47:05.538Z,12.27
2022-08-28T08:49:48.370Z,16.25
2022-08-28T08:52:29.971Z,12.32
2022-08-28T08:55:28.668Z,12.63
2022-08-28T08:58:23.994Z,16.00
2022-08-28T09:01:09.000Z,13.60
2022-08-28T09:03:50.268Z,15.20
2022-08-28T09:06:45.121Z,11.52
2022-08-28T09:09:34.729Z,9.50
2022-08-28T09:12:05.570Z,14.90
2022-08-28T09:14:59.215Z,12.15
2022-08-28T09:17:31.319Z,10.55
2022-08-28T09:19:58.093Z,11.15
2022-08-28T09:22:24.486Z,11.93
2022-08-28T09:24:52.524Z,13.02
2022-08-28T09:27:30.769Z,11.50
2022-08-28T09:30:07.312Z,10.93
2022-08-28T09:32:38.743Z,14.77
2022-08-28T09:35:07.815Z,10.75
2022-08-28T09:37:36.488Z,14.07
2022-08-28T09:40:30.535Z,11.77
2022-08-28T09:43:02.361Z,15.25
2022-08-28T09:45:30.616Z,11.02
2022-08-28T09:47:58.456Z,15.55
2022-08-28T09:50:31.396Z,10.23
2022-08-28T09:53:13.618Z,11.02
2022-08-28T09:56:12.625Z,12.02
2022-08-28T09:58:55.483Z,10.15
2022-08-28T10:01:44.825Z,11.13
2022-08-28T10:04:14.749Z,9.65
2022-08-28T10:06:44.853Z,9.77
2022-08-28T10:09:26.805Z,10.60
2022-08-28T10:11:59.152Z,11.05
2022-08-28T10:14:39.504Z,10.45
2022-08-28T10:20:06.466Z,9.68
2022-08-28T10:22:53.426Z,9.20
2022-08-28T10:25:44.358Z,12.00
2022-08-28T10:28:42.831Z,12.85
2022-08-28T10:31:31.545Z,10.05
2022-08-28T10:34:07.749Z,9.00
2022-08-28T10:36:36.650Z,10.18
2022-08-28T10:39:21.194Z,10.48
2022-08-28T10:41:58.211Z,11.70
2022-08-28T10:44:36.974Z,9.15
2022-08-28T10:47:05.603Z,8.32
2022-08-28T10:49:37.161Z,11.40
2022-08-28T10:52:09.223Z,11.73
2022-08-28T10:54:54.723Z,9.48
2022-08-28T10:57:37.284Z,10.82
2022-08-28T11:00:16.672Z,11.23
2022-08-28T11:02:51.403Z,11.07
2022-08-28T11:05:24.230Z,14.23
2022-08-28T11:07:58.534Z,8.95
2022-08-28T11:10:50.038Z,9.13
2022-08-28T11:13:55.709Z,7.45
2022-08-28T11:16:24.512Z,11.35
2022-08-28T11:19:14.458Z,8.40
2022-08-28T11:22:03.558Z,10.07
2022-08-28T11:24:39.031Z,12.70
2022-08-28T11:27:31.547Z,8.02
2022-08-28T11:30:03.372Z,9.10
2022-08-28T11:32:51.469Z,10.23
2022-08-28T11:35:20.868Z,8.77
2022-08-28T11:37:52.436Z,7.87
2022-08-28T11:40:28.020Z,7.75
2022-08-28T11:43:13.021Z,12.07
2022-08-28T11:45:46.635Z,8.32
2022-08-28T11:48:22.896Z,11.48
2022-08-28T11:50:54.480Z,11.95
2022-08-28T11:53:29.671Z,8.60
2022-08-28T11:56:31.046Z,7.18
2022-08-28T11:59:37.201Z,6.15
2022-08-28T12:02:41.178Z,7.22
2022-08-28T12:05:16.207Z,9.50
2022-08-28T12:07:48.472Z,7.00
2022-08-28T12:10:24.080Z,7.70
2022-08-28T12:12:57.678Z,6.65
2022-08-28T12:15:30.119Z,7.30
2022-08-28T12:18:03.938Z,7.07
2022-08-28T12:20:39.459Z,8.13
2022-08-28T12:23:37.091Z,9.07
2022-08-28T12:26:27.065Z,9.93
2022-08-28T12:29:01.136Z,6.30
2022-08-28T12:31:56.774Z,6.95
2022-08-28T12:34:34.553Z,7.25
2022-08-28T12:37:02.850Z,8.93
2022-08-28T12:39:32.058Z,6.10
2022-08-28T12:41:59.383Z,7.47
2022-08-28T12:44:29.556Z,8.23
2022-08-28T12:49:37.418Z,6.82
2022-08-28T12:52:25.963Z,5.95
2022-08-28T12:54:54.873Z,5.93
2022-08-28T12:57:24.178Z,7.35
2022-08-28T12:59:53.570Z,6.50
2022-08-28T13:02:33.952Z,7.33
2022-08-28T13:05:07.408Z,8.25
2022-08-28T13:07:46.869Z,5.90
2022-08-28T13:10:42.536Z,7.00
2022-08-28T13:13:18.954Z,7.60
2022-08-28T13:15:51.683Z,5.75
2022-08-28T13:18:39.907Z,5.30
2022-08-28T13:21:32.522Z,6.90
2022-08-28T13:24:21.288Z,6.30
2022-08-28T13:26:50.337Z,8.38
2022-08-28T13:29:19.893Z,6.68
2022-08-28T13:31:56.642Z,6.70
2022-08-28T13:34:25.970Z,7.95
2022-08-28T13:36:56.425Z,8.70
2022-08-28T13:39:22.812Z,8.75
2022-08-28T13:41:54.335Z,9.50
2022-08-28T13:44:33.023Z,7.22
2022-08-28T13:47:01.983Z,8.90
2022-08-28T13:49:28.656Z,6.65
2022-08-28T13:51:57.979Z,6.88
2022-08-28T13:54:27.155Z,8.67
2022-08-28T13:59:21.489Z,6.53
2022-08-28T14:01:50.611Z,6.75
2022-08-28T14:04:17.222Z,5.63
2022-08-28T14:06:44.550Z,6.43
2022-08-28T14:09:11.953Z,7.07
2022-08-28T14:11:38.725Z,6.97
2022-08-28T14:14:05.474Z,9.35
2022-08-28T14:16:35.452Z,9.40
2022-08-28T14:19:06.212Z,7.80
2022-08-28T14:21:34.370Z,9.57
2022-08-28T14:24:01.132Z,7.80
2022-08-28T14:26:28.546Z,6.10
2022-08-28T14:28:55.284Z,5.93
2022-08-28T14:31:22.032Z,6.43
2022-08-28T14:33:53.189Z,8.35
2022-08-28T14:36:26.723Z,9.07
2022-08-28T14:38:55.975Z,6.80
2022-08-28T14:41:23.927Z,7.22
2022-08-28T14:43:51.472Z,11.30
2022-08-28T14:46:37.628Z,7.90
2022-08-28T14:49:08.470Z,5.35
2022-08-28T14:51:37.644Z,5.90
2022-08-28T14:54:06.798Z,7.55
2022-08-28T14:56:34.332Z,6.60
2022-08-28T14:59:04.666Z,6.18
2022-08-28T15:01:39.542Z,8.32
2022-08-28T15:04:10.931Z,5.55
2022-08-28T15:09:04.165Z,5.93
2022-08-28T15:11:31.003Z,5.35
2022-08-28T15:13:57.864Z,5.28
2022-08-28T15:16:37.241Z,5.00
2022-08-28T15:19:05.083Z,5.90
2022-08-28T15:21:33.069Z,8.43
2022-08-28T15:24:01.842Z,7.05
2022-08-28T15:26:34.579Z,5.15
2022-08-28T15:29:01.136Z,6.15
2022-08-28T15:31:32.634Z,6.75
2022-08-28T15:34:03.936Z,4.75
2022-08-28T15:36:33.840Z,5.60
2022-08-28T15:39:03.733Z,7.85
2022-08-28T15:41:30.763Z,5.25
2022-08-28T15:44:00.311Z,8.80
2022-08-28T15:46:28.262Z,5.20
2022-08-28T15:48:55.610Z,5.80
2022-08-28T15:51:26.096Z,7.00
2022-08-28T15:53:54.726Z,6.30
2022-08-28T15:56:21.200Z,5.80
2022-08-28T15:58:48.103Z,4.82
2022-08-28T16:01:14.520Z,8.20
2022-08-28T16:03:41.820Z,5.15
2022-08-28T16:06:15.130Z,5.43
2022-08-28T16:08:42.685Z,4.80
2022-08-28T16:11:09.432Z,5.57
2022-08-28T16:13:35.965Z,6.50
2022-08-28T16:16:02.542Z,6.18
2022-08-28T16:18:29.352Z,5.60
2022-08-28T16:20:55.777Z,6.20
2022-08-28T16:23:22.694Z,5.78
2022-08-28T16:25:49.231Z,5.55
2022-08-28T16:28:15.832Z,5.20
2022-08-28T16:30:43.901Z,4.97
2022-08-28T16:33:11.217Z,5.57
2022-08-28T16:35:49.447Z,6.28
2022-08-28T16:38:21.381Z,5.60
2022-08-28T16:40:48.338Z,6.85
2022-08-28T16:43:15.412Z,5.63
2022-08-28T16:45:46.165Z,4.90
2022-08-28T16:48:14.617Z,6.43
2022-08-28T16:50:42.654Z,5.63
2022-08-28T16:53:09.778Z,6.00
2022-08-28T16:55:38.271Z,8.73
2022-08-28T16:58:05.392Z,6.93
2022-08-28T17:00:31.816Z,7.25
2022-08-28T17:02:59.495Z,5.32
2022-08-28T17:05:27.026Z,5.68
2022-08-28T17:07:53.577Z,5.38
2022-08-28T17:10:22.402Z,5.80
2022-08-28T17:12:49.354Z,5.63
2022-08-28T17:15:16.353Z,7.88
2022-08-28T17:17:43.149Z,5.70
2022-08-28T17:20:11.546Z,5.40
2022-08-28T17:22:38.123Z,5.03
2022-08-28T17:25:13.822Z,5.88
2022-08-28T17:27:41.497Z,5.75
2022-08-28T17:30:11.895Z,6.88
2022-08-28T17:32:38.427Z,7.45
2022-08-28T17:35:05.844Z,6.68
2022-08-28T17:37:32.801Z,5.72
2022-08-28T17:39:59.424Z,5.63
2022-08-28T17:42:25.790Z,4.95
2022-08-28T17:44:52.472Z,6.97
2022-08-28T17:47:19.049Z,5.63
2022-08-28T17:49:53.877Z,6.75
2022-08-28T17:52:20.276Z,7.32
2022-08-28T17:54:46.775Z,5.18
2022-08-28T17:57:20.369Z,5.65
2022-08-28T17:59:46.814Z,8.85
2022-08-28T18:02:13.393Z,6.07
2022-08-28T18:04:39.880Z,7.38
2022-08-28T18:07:06.308Z,8.38
2022-08-28T18:09:32.803Z,7.72
2022-08-28T18:11:59.534Z,6.18
2022-08-28T18:14:27.407Z,6.18
2022-08-28T18:16:54.056Z,12.38
2022-08-28T18:19:20.792Z,6.50
2022-08-28T18:21:47.659Z,5.45
2022-08-28T18:24:14.096Z,7.28
2022-08-28T18:26:42.155Z,6.18
2022-08-28T18:29:08.808Z,8.05
2022-08-28T18:31:35.506Z,9.20
2022-08-28T18:34:02.313Z,8.68
2022-08-28T18:36:29.043Z,7.05
2022-08-28T18:38:55.622Z,6.50
2022-08-28T18:41:26.938Z,7.57
2022-08-28T18:44:10.061Z,7.57
2022-08-28T18:46:36.555Z,7.95
2022-08-28T18:49:04.083Z,7.28
2022-08-28T18:51:30.586Z,7.40
2022-08-28T18:53:59.417Z,5.93
2022-08-28T18:56:28.031Z,7.22
2022-08-28T18:58:57.990Z,10.52
2022-08-28T19:01:24.865Z,9.43
2022-08-28T19:03:51.835Z,16.20
2022-08-28T19:06:22.267Z,10.40
2022-08-28T19:11:17.233Z,9.63
2022-08-28T19:13:44.029Z,9.70
2022-08-28T19:16:15.451Z,12.48
2022-08-28T19:18:42.215Z,10.63
2022-08-28T19:21:16.270Z,10.23
2022-08-28T19:23:55.608Z,11.40
2022-08-28T19:26:27.781Z,14.70
2022-08-28T19:28:55.248Z,12.90
2022-08-28T19:31:26.199Z,12.02
2022-08-28T19:33:53.470Z,12.43
2022-08-28T19:36:20.195Z,12.95
2022-08-28T19:38:47.066Z,10.35
2022-08-28T19:41:14.309Z,12.35
2022-08-28T19:43:42.912Z,13.48
2022-08-28T19:46:18.446Z,14.43
2022-08-28T19:48:51.083Z,12.48
2022-08-28T19:51:23.448Z,11.85
2022-08-28T19:53:57.286Z,11.07
2022-08-28T19:56:27.414Z,13.60
2022-08-28T19:58:55.487Z,13.48
2022-08-28T20:01:24.391Z,13.50
2022-08-28T20:03:51.080Z,11.18
2022-08-28T20:06:18.599Z,11.00
2022-08-28T20:08:45.087Z,10.80
2022-08-28T20:11:17.543Z,8.57
2022-08-28T20:13:44.108Z,11.63
2022-08-28T20:16:11.146Z,11.18
2022-08-28T20:18:37.569Z,15.15
2022-08-28T20:21:04.172Z,9.00
2022-08-28T20:23:30.719Z,9.10
2022-08-28T20:25:57.072Z,13.18
2022-08-28T20:28:23.569Z,9.80
2022-08-28T20:30:50.203Z,13.00
2022-08-28T20:33:16.606Z,13.45
2022-08-28T20:35:43.359Z,11.43
2022-08-28T20:38:09.747Z,16.33
2022-08-28T20:40:36.342Z,14.27
2022-08-28T20:43:03.104Z,10.93
2022-08-28T20:45:29.815Z,18.92
2022-08-28T20:47:56.542Z,12.60
2022-08-28T20:50:25.074Z,10.10
2022-08-28T20:52:51.662Z,10.25
2022-08-28T20:55:18.159Z,13.30
2022-08-28T20:57:45.849Z,12.73
2022-08-28T21:00:12.889Z,10.52
2022-08-28T21:02:39.897Z,15.40
2022-08-28T21:05:06.892Z,16.60
2022-08-28T21:07:36.336Z,12.35
2022-08-28T21:10:08.008Z,12.82
2022-08-28T21:12:39.203Z,13.45
2022-08-28T21:15:08.954Z,9.13
2022-08-28T21:17:36.107Z,11.00
2022-08-28T21:20:07.045Z,9.45
2022-08-28T21:22:35.297Z,12.20
2022-08-28T21:25:07.557Z,11.45
2022-08-28T21:27:34.669Z,9.95
2022-08-28T21:30:01.422Z,13.40
2022-08-28T21:32:29.372Z,11.35
2022-08-28T21:34:56.602Z,11.45
2022-08-28T21:37:23.778Z,11.13
2022-08-28T21:39:50.261Z,12.27
2022-08-28T21:42:17.001Z,12.60
2022-08-28T21:44:44.615Z,10.05
2022-08-28T21:47:19.752Z,12.93
2022-08-28T21:49:48.608Z,11.90
2022-08-28T21:52:15.063Z,13.15
2022-08-28T21:54:41.606Z,13.35
2022-08-28T21:57:08.256Z,12.27
2022-08-28T21:59:37.848Z,11.63
2022-08-28T22:02:04.749Z,19.08
2022-08-28T22:04:33.238Z,10.65
2022-08-28T22:07:01.036Z,11.38
2022-08-28T22:09:28.427Z,15.02
2022-08-28T22:11:54.881Z,13.32
2022-08-28T22:14:21.224Z,12.90
2022-08-28T22:16:47.893Z,10.77
2022-08-28T22:19:14.341Z,14.60
2022-08-28T22:21:41.102Z,11.07
2022-08-28T22:24:09.130Z,12.65
2022-08-28T22:26:35.980Z,15.55
2022-08-28T22:29:02.394Z,12.75
2022-08-28T22:31:28.928Z,14.88
2022-08-28T22:33:55.407Z,10.88
2022-08-28T22:36:22.287Z,11.63
2022-08-28T22:38:53.437Z,10.00
2022-08-28T22:41:20.714Z,13.57
2022-08-28T22:43:51.177Z,15.10
2022-08-28T22:46:19.476Z,11.40
2022-08-28T22:48:46.150Z,14.55
2022-08-28T22:51:15.098Z,11.88
2022-08-28T22:53:42.898Z,11.52
2022-08-28T22:56:11.218Z,12.45
2022-08-28T22:58:39.068Z,21.67
2022-08-28T23:01:09.675Z,11.90
2022-08-28T23:06:03.929Z,9.93
2022-08-28T23:08:33.911Z,12.65
2022-08-28T23:11:01.041Z,11.35
2022-08-28T23:13:28.370Z,12.02
2022-08-28T23:15:54.742Z,15.57
2022-08-28T23:18:21.453Z,12.93
2022-08-28T23:20:50.535Z,16.15
2022-08-28T23:23:17.368Z,13.82
2022-08-28T23:25:46.146Z,15.25
2022-08-28T23:28:13.355Z,11.00
2022-08-28T23:30:40.295Z,11.30
2022-08-28T23:33:10.581Z,15.05
2022-08-28T23:35:38.594Z,15.73
2022-08-28T23:38:05.027Z,14.25
2022-08-28T23:40:32.813Z,10.63
2022-08-28T23:43:01.618Z,12.25
2022-08-28T23:45:28.609Z,11.02
2022-08-28T23:47:55.127Z,13.60
2022-08-28T23:50:23.130Z,14.25
2022-08-28T23:52:50.280Z,11.60
2022-08-28T23:55:18.945Z,13.07
2022-08-28T23:57:45.797Z,16.42
